<?xml version="1.0" encoding="UTF-8" standalone="no" ?>
<gpx xmlns="http://www.topografix.com/GPX/1/1" xmlns:xsi="http://www.w3.org/2001/XMLSchema-instance" xsi:schemaLocation="http://www.topografix.com/GPX/1/1 http://www.topografix.com/GPX/1/1/gpx.xsd" version="1.1" creator="VisuGPX - https://www.visugpx.com">
  <metadata>
    <name>MN 94 Notre-dame</name>
    <desc><![CDATA[MN RSMA 2015-06]]></desc>
  </metadata>
  <trk>
    <name><![CDATA[MN Notre-Dame ]]></name>
    <cmt><![CDATA[rsma notre-dame ]]></cmt>
    <desc><![CDATA[comment ...]]></desc>
    <trkseg>
      <trkpt lat="48.74902" lon="2.53914">
        <ele>104</ele>
        <time>2015-06-08T06:16:18Z</time>
      </trkpt>
      <trkpt lat="48.74904" lon="2.53913">
        <ele>105</ele>
        <time>2015-06-08T06:16:19Z</time>
      </trkpt>
      <trkpt lat="48.74906" lon="2.53909">
        <ele>106</ele>
        <time>2015-06-08T06:16:21Z</time>
      </trkpt>
      <trkpt lat="48.74903" lon="2.539">
        <ele>102</ele>
        <time>2015-06-08T06:16:26Z</time>
      </trkpt>
      <trkpt lat="48.74901" lon="2.53897">
        <ele>101</ele>
        <time>2015-06-08T06:16:50Z</time>
      </trkpt>
      <trkpt lat="48.74901" lon="2.53895">
        <ele>101</ele>
        <time>2015-06-08T06:16:56Z</time>
      </trkpt>
      <trkpt lat="48.74902" lon="2.53891">
        <ele>104</ele>
        <time>2015-06-08T06:18:01Z</time>
      </trkpt>
      <trkpt lat="48.74904" lon="2.53888">
        <ele>103</ele>
        <time>2015-06-08T06:18:13Z</time>
      </trkpt>
      <trkpt lat="48.74907" lon="2.53891">
        <ele>103</ele>
        <time>2015-06-08T06:18:49Z</time>
      </trkpt>
      <trkpt lat="48.74909" lon="2.53887">
        <ele>104</ele>
        <time>2015-06-08T06:19:31Z</time>
      </trkpt>
      <trkpt lat="48.7491" lon="2.5389">
        <ele>107</ele>
        <time>2015-06-08T06:23:53Z</time>
      </trkpt>
      <trkpt lat="48.74907" lon="2.53894">
        <ele>105</ele>
        <time>2015-06-08T06:24:21Z</time>
      </trkpt>
      <trkpt lat="48.74908" lon="2.53894">
        <ele>103</ele>
        <time>2015-06-08T06:25:13Z</time>
      </trkpt>
      <trkpt lat="48.74911" lon="2.53895">
        <ele>104</ele>
        <time>2015-06-08T06:26:01Z</time>
      </trkpt>
      <trkpt lat="48.74912" lon="2.53897">
        <ele>105</ele>
        <time>2015-06-08T06:26:21Z</time>
      </trkpt>
      <trkpt lat="48.74915" lon="2.5391">
        <ele>106</ele>
        <time>2015-06-08T06:26:38Z</time>
      </trkpt>
      <trkpt lat="48.74914" lon="2.53946">
        <ele>103</ele>
        <time>2015-06-08T06:27:06Z</time>
      </trkpt>
      <trkpt lat="48.74915" lon="2.53951">
        <ele>103</ele>
        <time>2015-06-08T06:27:23Z</time>
      </trkpt>
      <trkpt lat="48.74918" lon="2.53961">
        <ele>101</ele>
        <time>2015-06-08T06:27:59Z</time>
      </trkpt>
      <trkpt lat="48.74923" lon="2.53966">
        <ele>99</ele>
        <time>2015-06-08T06:28:19Z</time>
      </trkpt>
      <trkpt lat="48.7493" lon="2.53983">
        <ele>98</ele>
        <time>2015-06-08T06:28:50Z</time>
      </trkpt>
      <trkpt lat="48.74933" lon="2.53986">
        <ele>97</ele>
        <time>2015-06-08T06:28:53Z</time>
      </trkpt>
      <trkpt lat="48.74936" lon="2.5399">
        <ele>96</ele>
        <time>2015-06-08T06:28:58Z</time>
      </trkpt>
      <trkpt lat="48.74938" lon="2.53994">
        <ele>97</ele>
        <time>2015-06-08T06:29:56Z</time>
      </trkpt>
      <trkpt lat="48.74959" lon="2.5401">
        <ele>100</ele>
        <time>2015-06-08T06:30:27Z</time>
      </trkpt>
      <trkpt lat="48.74974" lon="2.5402">
        <ele>101</ele>
        <time>2015-06-08T06:30:49Z</time>
      </trkpt>
      <trkpt lat="48.74978" lon="2.54033">
        <ele>101</ele>
        <time>2015-06-08T06:30:59Z</time>
      </trkpt>
      <trkpt lat="48.74977" lon="2.54036">
        <ele>100</ele>
        <time>2015-06-08T06:31:01Z</time>
      </trkpt>
      <trkpt lat="48.74971" lon="2.54063">
        <ele>97</ele>
        <time>2015-06-08T06:31:22Z</time>
      </trkpt>
      <trkpt lat="48.74973" lon="2.54063">
        <ele>97</ele>
        <time>2015-06-08T06:31:24Z</time>
      </trkpt>
      <trkpt lat="48.74973" lon="2.54068">
        <ele>96</ele>
        <time>2015-06-08T06:31:29Z</time>
      </trkpt>
      <trkpt lat="48.74971" lon="2.54077">
        <ele>97</ele>
        <time>2015-06-08T06:31:35Z</time>
      </trkpt>
      <trkpt lat="48.74966" lon="2.54091">
        <ele>100</ele>
        <time>2015-06-08T06:31:47Z</time>
      </trkpt>
      <trkpt lat="48.74966" lon="2.54101">
        <ele>101</ele>
        <time>2015-06-08T06:31:59Z</time>
      </trkpt>
      <trkpt lat="48.74967" lon="2.54113">
        <ele>104</ele>
        <time>2015-06-08T06:32:18Z</time>
      </trkpt>
      <trkpt lat="48.74966" lon="2.54118">
        <ele>102</ele>
        <time>2015-06-08T06:32:31Z</time>
      </trkpt>
      <trkpt lat="48.74967" lon="2.54121">
        <ele>102</ele>
        <time>2015-06-08T06:32:50Z</time>
      </trkpt>
      <trkpt lat="48.74964" lon="2.54124">
        <ele>102</ele>
        <time>2015-06-08T06:32:57Z</time>
      </trkpt>
      <trkpt lat="48.7496" lon="2.54133">
        <ele>102</ele>
        <time>2015-06-08T06:33:06Z</time>
      </trkpt>
      <trkpt lat="48.74957" lon="2.54134">
        <ele>102</ele>
        <time>2015-06-08T06:33:09Z</time>
      </trkpt>
      <trkpt lat="48.74954" lon="2.54138">
        <ele>101</ele>
        <time>2015-06-08T06:33:15Z</time>
      </trkpt>
      <trkpt lat="48.7494" lon="2.54208">
        <ele>101</ele>
        <time>2015-06-08T06:33:39Z</time>
      </trkpt>
      <trkpt lat="48.74938" lon="2.54208">
        <ele>101</ele>
        <time>2015-06-08T06:33:40Z</time>
      </trkpt>
      <trkpt lat="48.74935" lon="2.54209">
        <ele>100</ele>
        <time>2015-06-08T06:33:42Z</time>
      </trkpt>
      <trkpt lat="48.74931" lon="2.54218">
        <ele>100</ele>
        <time>2015-06-08T06:33:48Z</time>
      </trkpt>
      <trkpt lat="48.74933" lon="2.54221">
        <ele>100</ele>
        <time>2015-06-08T06:33:49Z</time>
      </trkpt>
      <trkpt lat="48.74934" lon="2.54226">
        <ele>98</ele>
        <time>2015-06-08T06:34:29Z</time>
      </trkpt>
      <trkpt lat="48.74935" lon="2.54235">
        <ele>98</ele>
        <time>2015-06-08T06:34:36Z</time>
      </trkpt>
      <trkpt lat="48.74934" lon="2.54241">
        <ele>105</ele>
        <time>2015-06-08T06:34:54Z</time>
      </trkpt>
      <trkpt lat="48.74931" lon="2.54245">
        <ele>107</ele>
        <time>2015-06-08T06:35:08Z</time>
      </trkpt>
      <trkpt lat="48.74929" lon="2.54246">
        <ele>108</ele>
        <time>2015-06-08T06:35:11Z</time>
      </trkpt>
      <trkpt lat="48.74927" lon="2.54248">
        <ele>107</ele>
        <time>2015-06-08T06:35:14Z</time>
      </trkpt>
      <trkpt lat="48.74927" lon="2.54251">
        <ele>106</ele>
        <time>2015-06-08T06:35:17Z</time>
      </trkpt>
      <trkpt lat="48.7493" lon="2.54263">
        <ele>99</ele>
        <time>2015-06-08T06:35:28Z</time>
      </trkpt>
      <trkpt lat="48.74928" lon="2.54267">
        <ele>100</ele>
        <time>2015-06-08T06:36:19Z</time>
      </trkpt>
      <trkpt lat="48.74927" lon="2.54277">
        <ele>102</ele>
        <time>2015-06-08T06:36:35Z</time>
      </trkpt>
      <trkpt lat="48.7493" lon="2.54277">
        <ele>102</ele>
        <time>2015-06-08T06:36:45Z</time>
      </trkpt>
      <trkpt lat="48.7493" lon="2.54281">
        <ele>100</ele>
        <time>2015-06-08T06:37:41Z</time>
      </trkpt>
      <trkpt lat="48.74931" lon="2.54288">
        <ele>101</ele>
        <time>2015-06-08T06:37:46Z</time>
      </trkpt>
      <trkpt lat="48.74932" lon="2.54292">
        <ele>103</ele>
        <time>2015-06-08T06:37:49Z</time>
      </trkpt>
      <trkpt lat="48.74931" lon="2.54295">
        <ele>104</ele>
        <time>2015-06-08T06:37:51Z</time>
      </trkpt>
      <trkpt lat="48.74926" lon="2.54304">
        <ele>109</ele>
        <time>2015-06-08T06:37:58Z</time>
      </trkpt>
      <trkpt lat="48.74919" lon="2.54312">
        <ele>112</ele>
        <time>2015-06-08T06:38:04Z</time>
      </trkpt>
      <trkpt lat="48.74901" lon="2.54375">
        <ele>119</ele>
        <time>2015-06-08T06:38:34Z</time>
      </trkpt>
      <trkpt lat="48.74898" lon="2.54386">
        <ele>114</ele>
        <time>2015-06-08T06:38:39Z</time>
      </trkpt>
      <trkpt lat="48.74893" lon="2.54416">
        <ele>104</ele>
        <time>2015-06-08T06:38:50Z</time>
      </trkpt>
      <trkpt lat="48.74892" lon="2.54419">
        <ele>104</ele>
        <time>2015-06-08T06:38:51Z</time>
      </trkpt>
      <trkpt lat="48.74892" lon="2.54422">
        <ele>103</ele>
        <time>2015-06-08T06:38:53Z</time>
      </trkpt>
      <trkpt lat="48.74894" lon="2.54425">
        <ele>102</ele>
        <time>2015-06-08T06:38:55Z</time>
      </trkpt>
      <trkpt lat="48.74905" lon="2.54442">
        <ele>104</ele>
        <time>2015-06-08T06:39:06Z</time>
      </trkpt>
      <trkpt lat="48.74921" lon="2.54459">
        <ele>106</ele>
        <time>2015-06-08T06:39:22Z</time>
      </trkpt>
      <trkpt lat="48.74928" lon="2.54466">
        <ele>110</ele>
        <time>2015-06-08T06:39:28Z</time>
      </trkpt>
      <trkpt lat="48.74977" lon="2.54503">
        <ele>105</ele>
        <time>2015-06-08T06:39:58Z</time>
      </trkpt>
      <trkpt lat="48.75028" lon="2.5454">
        <ele>105</ele>
        <time>2015-06-08T06:40:28Z</time>
      </trkpt>
      <trkpt lat="48.75081" lon="2.54578">
        <ele>104</ele>
        <time>2015-06-08T06:40:58Z</time>
      </trkpt>
      <trkpt lat="48.75134" lon="2.54623">
        <ele>108</ele>
        <time>2015-06-08T06:41:28Z</time>
      </trkpt>
      <trkpt lat="48.75174" lon="2.54655">
        <ele>101</ele>
        <time>2015-06-08T06:41:58Z</time>
      </trkpt>
      <trkpt lat="48.75182" lon="2.5466">
        <ele>102</ele>
        <time>2015-06-08T06:42:03Z</time>
      </trkpt>
      <trkpt lat="48.75237" lon="2.54698">
        <ele>105</ele>
        <time>2015-06-08T06:42:33Z</time>
      </trkpt>
      <trkpt lat="48.75242" lon="2.54701">
        <ele>104</ele>
        <time>2015-06-08T06:42:37Z</time>
      </trkpt>
      <trkpt lat="48.7529" lon="2.54736">
        <ele>107</ele>
        <time>2015-06-08T06:43:07Z</time>
      </trkpt>
      <trkpt lat="48.75331" lon="2.54775">
        <ele>101</ele>
        <time>2015-06-08T06:43:39Z</time>
      </trkpt>
      <trkpt lat="48.75332" lon="2.54778">
        <ele>98</ele>
        <time>2015-06-08T06:44:04Z</time>
      </trkpt>
      <trkpt lat="48.75332" lon="2.54806">
        <ele>101</ele>
        <time>2015-06-08T06:44:20Z</time>
      </trkpt>
      <trkpt lat="48.75331" lon="2.54812">
        <ele>106</ele>
        <time>2015-06-08T06:44:26Z</time>
      </trkpt>
      <trkpt lat="48.75331" lon="2.54816">
        <ele>107</ele>
        <time>2015-06-08T06:44:28Z</time>
      </trkpt>
      <trkpt lat="48.75331" lon="2.5482">
        <ele>111</ele>
        <time>2015-06-08T06:44:30Z</time>
      </trkpt>
      <trkpt lat="48.75332" lon="2.54829">
        <ele>113</ele>
        <time>2015-06-08T06:44:34Z</time>
      </trkpt>
      <trkpt lat="48.75342" lon="2.54923">
        <ele>107</ele>
        <time>2015-06-08T06:45:04Z</time>
      </trkpt>
      <trkpt lat="48.75346" lon="2.55002">
        <ele>110</ele>
        <time>2015-06-08T06:45:35Z</time>
      </trkpt>
      <trkpt lat="48.75346" lon="2.55051">
        <ele>107</ele>
        <time>2015-06-08T06:45:52Z</time>
      </trkpt>
      <trkpt lat="48.75347" lon="2.55062">
        <ele>106</ele>
        <time>2015-06-08T06:45:56Z</time>
      </trkpt>
      <trkpt lat="48.75345" lon="2.55069">
        <ele>108</ele>
        <time>2015-06-08T06:46:01Z</time>
      </trkpt>
      <trkpt lat="48.75346" lon="2.55082">
        <ele>113</ele>
        <time>2015-06-08T06:46:07Z</time>
      </trkpt>
      <trkpt lat="48.75348" lon="2.5512">
        <ele>110</ele>
        <time>2015-06-08T06:46:18Z</time>
      </trkpt>
      <trkpt lat="48.75347" lon="2.55194">
        <ele>112</ele>
        <time>2015-06-08T06:46:49Z</time>
      </trkpt>
      <trkpt lat="48.75346" lon="2.55198">
        <ele>112</ele>
        <time>2015-06-08T06:46:51Z</time>
      </trkpt>
      <trkpt lat="48.75358" lon="2.55287">
        <ele>114</ele>
        <time>2015-06-08T06:47:21Z</time>
      </trkpt>
      <trkpt lat="48.75364" lon="2.55379">
        <ele>108</ele>
        <time>2015-06-08T06:47:51Z</time>
      </trkpt>
      <trkpt lat="48.75367" lon="2.55463">
        <ele>108</ele>
        <time>2015-06-08T06:48:21Z</time>
      </trkpt>
      <trkpt lat="48.75363" lon="2.5548">
        <ele>108</ele>
        <time>2015-06-08T06:48:28Z</time>
      </trkpt>
      <trkpt lat="48.7537" lon="2.5552">
        <ele>113</ele>
        <time>2015-06-08T06:48:42Z</time>
      </trkpt>
      <trkpt lat="48.75363" lon="2.55609">
        <ele>103</ele>
        <time>2015-06-08T06:49:12Z</time>
      </trkpt>
      <trkpt lat="48.75371" lon="2.55693">
        <ele>105</ele>
        <time>2015-06-08T06:49:43Z</time>
      </trkpt>
      <trkpt lat="48.75369" lon="2.55703">
        <ele>104</ele>
        <time>2015-06-08T06:49:49Z</time>
      </trkpt>
      <trkpt lat="48.75369" lon="2.55706">
        <ele>104</ele>
        <time>2015-06-08T06:49:51Z</time>
      </trkpt>
      <trkpt lat="48.75371" lon="2.55718">
        <ele>100</ele>
        <time>2015-06-08T06:50:21Z</time>
      </trkpt>
      <trkpt lat="48.7537" lon="2.5572">
        <ele>100</ele>
        <time>2015-06-08T06:50:31Z</time>
      </trkpt>
      <trkpt lat="48.7537" lon="2.55722">
        <ele>100</ele>
        <time>2015-06-08T06:50:40Z</time>
      </trkpt>
      <trkpt lat="48.75369" lon="2.55725">
        <ele>100</ele>
        <time>2015-06-08T06:50:42Z</time>
      </trkpt>
      <trkpt lat="48.75371" lon="2.55738">
        <ele>99</ele>
        <time>2015-06-08T06:50:50Z</time>
      </trkpt>
      <trkpt lat="48.75373" lon="2.55742">
        <ele>99</ele>
        <time>2015-06-08T06:50:56Z</time>
      </trkpt>
      <trkpt lat="48.75372" lon="2.55751">
        <ele>100</ele>
        <time>2015-06-08T06:51:03Z</time>
      </trkpt>
      <trkpt lat="48.75372" lon="2.55755">
        <ele>101</ele>
        <time>2015-06-08T06:51:11Z</time>
      </trkpt>
      <trkpt lat="48.75375" lon="2.55761">
        <ele>99</ele>
        <time>2015-06-08T06:51:21Z</time>
      </trkpt>
      <trkpt lat="48.75375" lon="2.55764">
        <ele>100</ele>
        <time>2015-06-08T06:52:15Z</time>
      </trkpt>
      <trkpt lat="48.75375" lon="2.5577">
        <ele>104</ele>
        <time>2015-06-08T06:52:22Z</time>
      </trkpt>
      <trkpt lat="48.75376" lon="2.55772">
        <ele>105</ele>
        <time>2015-06-08T06:52:24Z</time>
      </trkpt>
      <trkpt lat="48.75376" lon="2.55775">
        <ele>106</ele>
        <time>2015-06-08T06:52:27Z</time>
      </trkpt>
      <trkpt lat="48.75373" lon="2.5578">
        <ele>108</ele>
        <time>2015-06-08T06:52:32Z</time>
      </trkpt>
      <trkpt lat="48.75373" lon="2.55785">
        <ele>107</ele>
        <time>2015-06-08T06:52:34Z</time>
      </trkpt>
      <trkpt lat="48.75377" lon="2.55878">
        <ele>100</ele>
        <time>2015-06-08T06:53:04Z</time>
      </trkpt>
      <trkpt lat="48.75378" lon="2.55892">
        <ele>102</ele>
        <time>2015-06-08T06:53:09Z</time>
      </trkpt>
      <trkpt lat="48.75377" lon="2.5592">
        <ele>104</ele>
        <time>2015-06-08T06:53:19Z</time>
      </trkpt>
      <trkpt lat="48.75386" lon="2.5601">
        <ele>104</ele>
        <time>2015-06-08T06:53:49Z</time>
      </trkpt>
      <trkpt lat="48.75386" lon="2.56015">
        <ele>105</ele>
        <time>2015-06-08T06:53:51Z</time>
      </trkpt>
      <trkpt lat="48.75386" lon="2.56026">
        <ele>109</ele>
        <time>2015-06-08T06:53:58Z</time>
      </trkpt>
      <trkpt lat="48.75389" lon="2.56107">
        <ele>107</ele>
        <time>2015-06-08T06:54:28Z</time>
      </trkpt>
      <trkpt lat="48.7539" lon="2.56172">
        <ele>110</ele>
        <time>2015-06-08T06:54:59Z</time>
      </trkpt>
      <trkpt lat="48.75394" lon="2.5625">
        <ele>119</ele>
        <time>2015-06-08T06:55:30Z</time>
      </trkpt>
      <trkpt lat="48.75393" lon="2.56319">
        <ele>125</ele>
        <time>2015-06-08T06:56:00Z</time>
      </trkpt>
      <trkpt lat="48.75397" lon="2.56408">
        <ele>122</ele>
        <time>2015-06-08T06:56:30Z</time>
      </trkpt>
      <trkpt lat="48.75397" lon="2.56458">
        <ele>124</ele>
        <time>2015-06-08T06:56:51Z</time>
      </trkpt>
      <trkpt lat="48.75397" lon="2.56479">
        <ele>121</ele>
        <time>2015-06-08T06:57:01Z</time>
      </trkpt>
      <trkpt lat="48.75398" lon="2.56487">
        <ele>117</ele>
        <time>2015-06-08T06:57:02Z</time>
      </trkpt>
      <trkpt lat="48.75398" lon="2.56492">
        <ele>116</ele>
        <time>2015-06-08T06:57:03Z</time>
      </trkpt>
      <trkpt lat="48.75398" lon="2.56496">
        <ele>116</ele>
        <time>2015-06-08T06:57:05Z</time>
      </trkpt>
      <trkpt lat="48.75401" lon="2.56571">
        <ele>117</ele>
        <time>2015-06-08T06:57:35Z</time>
      </trkpt>
      <trkpt lat="48.75406" lon="2.56656">
        <ele>117</ele>
        <time>2015-06-08T06:58:05Z</time>
      </trkpt>
      <trkpt lat="48.75406" lon="2.5673">
        <ele>115</ele>
        <time>2015-06-08T06:58:35Z</time>
      </trkpt>
      <trkpt lat="48.75409" lon="2.56766">
        <ele>113</ele>
        <time>2015-06-08T06:58:47Z</time>
      </trkpt>
      <trkpt lat="48.75409" lon="2.56846">
        <ele>111</ele>
        <time>2015-06-08T06:59:17Z</time>
      </trkpt>
      <trkpt lat="48.75415" lon="2.56876">
        <ele>100</ele>
        <time>2015-06-08T06:59:34Z</time>
      </trkpt>
      <trkpt lat="48.75418" lon="2.56878">
        <ele>99</ele>
        <time>2015-06-08T06:59:38Z</time>
      </trkpt>
      <trkpt lat="48.75418" lon="2.56884">
        <ele>96</ele>
        <time>2015-06-08T06:59:45Z</time>
      </trkpt>
      <trkpt lat="48.75412" lon="2.56903">
        <ele>100</ele>
        <time>2015-06-08T06:59:59Z</time>
      </trkpt>
      <trkpt lat="48.75413" lon="2.56907">
        <ele>101</ele>
        <time>2015-06-08T07:00:04Z</time>
      </trkpt>
      <trkpt lat="48.75415" lon="2.56908">
        <ele>99</ele>
        <time>2015-06-08T07:00:44Z</time>
      </trkpt>
      <trkpt lat="48.75418" lon="2.56903">
        <ele>99</ele>
        <time>2015-06-08T07:00:51Z</time>
      </trkpt>
      <trkpt lat="48.75423" lon="2.56901">
        <ele>94</ele>
        <time>2015-06-08T07:01:04Z</time>
      </trkpt>
      <trkpt lat="48.75423" lon="2.56904">
        <ele>91</ele>
        <time>2015-06-08T07:02:23Z</time>
      </trkpt>
      <trkpt lat="48.75424" lon="2.56906">
        <ele>91</ele>
        <time>2015-06-08T07:02:27Z</time>
      </trkpt>
      <trkpt lat="48.75424" lon="2.56907">
        <ele>92</ele>
        <time>2015-06-08T07:03:05Z</time>
      </trkpt>
      <trkpt lat="48.75426" lon="2.56909">
        <ele>92</ele>
        <time>2015-06-08T07:03:13Z</time>
      </trkpt>
      <trkpt lat="48.75429" lon="2.56911">
        <ele>95</ele>
        <time>2015-06-08T07:03:16Z</time>
      </trkpt>
      <trkpt lat="48.7544" lon="2.56918">
        <ele>99</ele>
        <time>2015-06-08T07:03:28Z</time>
      </trkpt>
      <trkpt lat="48.75444" lon="2.56923">
        <ele>103</ele>
        <time>2015-06-08T07:03:34Z</time>
      </trkpt>
      <trkpt lat="48.75482" lon="2.56962">
        <ele>109</ele>
        <time>2015-06-08T07:04:04Z</time>
      </trkpt>
      <trkpt lat="48.75522" lon="2.57001">
        <ele>111</ele>
        <time>2015-06-08T07:04:30Z</time>
      </trkpt>
      <trkpt lat="48.75567" lon="2.57046">
        <ele>112</ele>
        <time>2015-06-08T07:05:00Z</time>
      </trkpt>
      <trkpt lat="48.75607" lon="2.57091">
        <ele>113</ele>
        <time>2015-06-08T07:05:30Z</time>
      </trkpt>
      <trkpt lat="48.75647" lon="2.5713">
        <ele>114</ele>
        <time>2015-06-08T07:06:00Z</time>
      </trkpt>
      <trkpt lat="48.7569" lon="2.57172">
        <ele>120</ele>
        <time>2015-06-08T07:06:30Z</time>
      </trkpt>
      <trkpt lat="48.75733" lon="2.57214">
        <ele>117</ele>
        <time>2015-06-08T07:07:00Z</time>
      </trkpt>
      <trkpt lat="48.75748" lon="2.57233">
        <ele>117</ele>
        <time>2015-06-08T07:07:10Z</time>
      </trkpt>
      <trkpt lat="48.75756" lon="2.57296">
        <ele>114</ele>
        <time>2015-06-08T07:07:40Z</time>
      </trkpt>
      <trkpt lat="48.75756" lon="2.57365">
        <ele>119</ele>
        <time>2015-06-08T07:08:11Z</time>
      </trkpt>
      <trkpt lat="48.75755" lon="2.57433">
        <ele>118</ele>
        <time>2015-06-08T07:08:41Z</time>
      </trkpt>
      <trkpt lat="48.75757" lon="2.57521">
        <ele>110</ele>
        <time>2015-06-08T07:09:12Z</time>
      </trkpt>
      <trkpt lat="48.7576" lon="2.57603">
        <ele>109</ele>
        <time>2015-06-08T07:09:42Z</time>
      </trkpt>
      <trkpt lat="48.75761" lon="2.57674">
        <ele>124</ele>
        <time>2015-06-08T07:10:13Z</time>
      </trkpt>
      <trkpt lat="48.75761" lon="2.57718">
        <ele>121</ele>
        <time>2015-06-08T07:10:28Z</time>
      </trkpt>
      <trkpt lat="48.7576" lon="2.5777">
        <ele>121</ele>
        <time>2015-06-08T07:10:48Z</time>
      </trkpt>
      <trkpt lat="48.75767" lon="2.57847">
        <ele>114</ele>
        <time>2015-06-08T07:11:09Z</time>
      </trkpt>
      <trkpt lat="48.75767" lon="2.57852">
        <ele>114</ele>
        <time>2015-06-08T07:11:13Z</time>
      </trkpt>
      <trkpt lat="48.75769" lon="2.57861">
        <ele>111</ele>
        <time>2015-06-08T07:11:36Z</time>
      </trkpt>
      <trkpt lat="48.75768" lon="2.57864">
        <ele>110</ele>
        <time>2015-06-08T07:11:51Z</time>
      </trkpt>
      <trkpt lat="48.75729" lon="2.57884">
        <ele>108</ele>
        <time>2015-06-08T07:12:22Z</time>
      </trkpt>
      <trkpt lat="48.75726" lon="2.57885">
        <ele>109</ele>
        <time>2015-06-08T07:12:24Z</time>
      </trkpt>
      <trkpt lat="48.75725" lon="2.57887">
        <ele>113</ele>
        <time>2015-06-08T07:12:26Z</time>
      </trkpt>
      <trkpt lat="48.75669" lon="2.57904">
        <ele>117</ele>
        <time>2015-06-08T07:12:51Z</time>
      </trkpt>
      <trkpt lat="48.75615" lon="2.57922">
        <ele>114</ele>
        <time>2015-06-08T07:13:21Z</time>
      </trkpt>
      <trkpt lat="48.75555" lon="2.57943">
        <ele>110</ele>
        <time>2015-06-08T07:13:52Z</time>
      </trkpt>
      <trkpt lat="48.75499" lon="2.57968">
        <ele>107</ele>
        <time>2015-06-08T07:14:22Z</time>
      </trkpt>
      <trkpt lat="48.75438" lon="2.57988">
        <ele>105</ele>
        <time>2015-06-08T07:14:52Z</time>
      </trkpt>
      <trkpt lat="48.75381" lon="2.5801">
        <ele>100</ele>
        <time>2015-06-08T07:15:22Z</time>
      </trkpt>
      <trkpt lat="48.75319" lon="2.58033">
        <ele>100</ele>
        <time>2015-06-08T07:15:52Z</time>
      </trkpt>
      <trkpt lat="48.75306" lon="2.58036">
        <ele>103</ele>
        <time>2015-06-08T07:16:00Z</time>
      </trkpt>
      <trkpt lat="48.75256" lon="2.58054">
        <ele>110</ele>
        <time>2015-06-08T07:16:30Z</time>
      </trkpt>
      <trkpt lat="48.75198" lon="2.58076">
        <ele>112</ele>
        <time>2015-06-08T07:17:00Z</time>
      </trkpt>
      <trkpt lat="48.75169" lon="2.58086">
        <ele>112</ele>
        <time>2015-06-08T07:17:13Z</time>
      </trkpt>
      <trkpt lat="48.75143" lon="2.58088">
        <ele>107</ele>
        <time>2015-06-08T07:17:26Z</time>
      </trkpt>
      <trkpt lat="48.75101" lon="2.58082">
        <ele>95</ele>
        <time>2015-06-08T07:17:47Z</time>
      </trkpt>
      <trkpt lat="48.75064" lon="2.58115">
        <ele>95</ele>
        <time>2015-06-08T07:18:17Z</time>
      </trkpt>
      <trkpt lat="48.7506" lon="2.5812">
        <ele>97</ele>
        <time>2015-06-08T07:18:21Z</time>
      </trkpt>
      <trkpt lat="48.75054" lon="2.58123">
        <ele>102</ele>
        <time>2015-06-08T07:18:25Z</time>
      </trkpt>
      <trkpt lat="48.74996" lon="2.58147">
        <ele>107</ele>
        <time>2015-06-08T07:18:56Z</time>
      </trkpt>
      <trkpt lat="48.74946" lon="2.58164">
        <ele>109</ele>
        <time>2015-06-08T07:19:22Z</time>
      </trkpt>
      <trkpt lat="48.74943" lon="2.58167">
        <ele>110</ele>
        <time>2015-06-08T07:19:24Z</time>
      </trkpt>
      <trkpt lat="48.74884" lon="2.5819">
        <ele>108</ele>
        <time>2015-06-08T07:19:55Z</time>
      </trkpt>
      <trkpt lat="48.74879" lon="2.58191">
        <ele>107</ele>
        <time>2015-06-08T07:19:58Z</time>
      </trkpt>
      <trkpt lat="48.74876" lon="2.58194">
        <ele>106</ele>
        <time>2015-06-08T07:20:00Z</time>
      </trkpt>
      <trkpt lat="48.74874" lon="2.58196">
        <ele>103</ele>
        <time>2015-06-08T07:20:02Z</time>
      </trkpt>
      <trkpt lat="48.7487" lon="2.58198">
        <ele>101</ele>
        <time>2015-06-08T07:20:06Z</time>
      </trkpt>
      <trkpt lat="48.74869" lon="2.582">
        <ele>99</ele>
        <time>2015-06-08T07:20:09Z</time>
      </trkpt>
      <trkpt lat="48.74867" lon="2.58202">
        <ele>97</ele>
        <time>2015-06-08T07:20:36Z</time>
      </trkpt>
      <trkpt lat="48.74866" lon="2.58201">
        <ele>96</ele>
        <time>2015-06-08T07:20:43Z</time>
      </trkpt>
      <trkpt lat="48.74864" lon="2.58202">
        <ele>96</ele>
        <time>2015-06-08T07:20:52Z</time>
      </trkpt>
      <trkpt lat="48.74861" lon="2.58202">
        <ele>96</ele>
        <time>2015-06-08T07:22:06Z</time>
      </trkpt>
      <trkpt lat="48.7486" lon="2.58203">
        <ele>97</ele>
        <time>2015-06-08T07:22:54Z</time>
      </trkpt>
      <trkpt lat="48.74858" lon="2.58201">
        <ele>96</ele>
        <time>2015-06-08T07:24:55Z</time>
      </trkpt>
      <trkpt lat="48.74855" lon="2.58197">
        <ele>96</ele>
        <time>2015-06-08T07:25:02Z</time>
      </trkpt>
      <trkpt lat="48.74853" lon="2.58195">
        <ele>95</ele>
        <time>2015-06-08T07:25:04Z</time>
      </trkpt>
      <trkpt lat="48.74851" lon="2.58193">
        <ele>95</ele>
        <time>2015-06-08T07:25:06Z</time>
      </trkpt>
      <trkpt lat="48.74826" lon="2.58135">
        <ele>92</ele>
        <time>2015-06-08T07:25:36Z</time>
      </trkpt>
      <trkpt lat="48.74825" lon="2.5813">
        <ele>95</ele>
        <time>2015-06-08T07:25:39Z</time>
      </trkpt>
      <trkpt lat="48.74819" lon="2.58121">
        <ele>97</ele>
        <time>2015-06-08T07:25:43Z</time>
      </trkpt>
      <trkpt lat="48.74812" lon="2.58111">
        <ele>101</ele>
        <time>2015-06-08T07:25:47Z</time>
      </trkpt>
      <trkpt lat="48.74807" lon="2.58099">
        <ele>107</ele>
        <time>2015-06-08T07:25:53Z</time>
      </trkpt>
      <trkpt lat="48.74806" lon="2.58093">
        <ele>111</ele>
        <time>2015-06-08T07:25:56Z</time>
      </trkpt>
      <trkpt lat="48.74768" lon="2.58023">
        <ele>102</ele>
        <time>2015-06-08T07:26:26Z</time>
      </trkpt>
      <trkpt lat="48.7476" lon="2.57997">
        <ele>104</ele>
        <time>2015-06-08T07:26:36Z</time>
      </trkpt>
      <trkpt lat="48.74761" lon="2.57981">
        <ele>107</ele>
        <time>2015-06-08T07:26:40Z</time>
      </trkpt>
      <trkpt lat="48.74731" lon="2.57897">
        <ele>105</ele>
        <time>2015-06-08T07:27:10Z</time>
      </trkpt>
      <trkpt lat="48.74708" lon="2.57849">
        <ele>104</ele>
        <time>2015-06-08T07:27:31Z</time>
      </trkpt>
      <trkpt lat="48.74707" lon="2.57846">
        <ele>105</ele>
        <time>2015-06-08T07:27:34Z</time>
      </trkpt>
      <trkpt lat="48.74705" lon="2.57837">
        <ele>107</ele>
        <time>2015-06-08T07:27:38Z</time>
      </trkpt>
      <trkpt lat="48.74672" lon="2.57772">
        <ele>107</ele>
        <time>2015-06-08T07:28:06Z</time>
      </trkpt>
      <trkpt lat="48.7464" lon="2.5769">
        <ele>109</ele>
        <time>2015-06-08T07:28:37Z</time>
      </trkpt>
      <trkpt lat="48.74638" lon="2.57685">
        <ele>109</ele>
        <time>2015-06-08T07:28:39Z</time>
      </trkpt>
      <trkpt lat="48.74636" lon="2.5767">
        <ele>107</ele>
        <time>2015-06-08T07:28:44Z</time>
      </trkpt>
      <trkpt lat="48.74633" lon="2.57662">
        <ele>108</ele>
        <time>2015-06-08T07:28:48Z</time>
      </trkpt>
      <trkpt lat="48.74633" lon="2.57659">
        <ele>109</ele>
        <time>2015-06-08T07:28:50Z</time>
      </trkpt>
      <trkpt lat="48.74602" lon="2.57584">
        <ele>98</ele>
        <time>2015-06-08T07:29:21Z</time>
      </trkpt>
      <trkpt lat="48.74594" lon="2.57569">
        <ele>99</ele>
        <time>2015-06-08T07:29:28Z</time>
      </trkpt>
      <trkpt lat="48.74566" lon="2.57496">
        <ele>96</ele>
        <time>2015-06-08T07:29:58Z</time>
      </trkpt>
      <trkpt lat="48.7456" lon="2.57464">
        <ele>101</ele>
        <time>2015-06-08T07:30:11Z</time>
      </trkpt>
      <trkpt lat="48.7456" lon="2.57459">
        <ele>104</ele>
        <time>2015-06-08T07:30:13Z</time>
      </trkpt>
      <trkpt lat="48.74532" lon="2.57388">
        <ele>103</ele>
        <time>2015-06-08T07:30:44Z</time>
      </trkpt>
      <trkpt lat="48.74505" lon="2.57344">
        <ele>92</ele>
        <time>2015-06-08T07:31:02Z</time>
      </trkpt>
      <trkpt lat="48.74483" lon="2.57268">
        <ele>91</ele>
        <time>2015-06-08T07:31:32Z</time>
      </trkpt>
      <trkpt lat="48.74476" lon="2.5726">
        <ele>91</ele>
        <time>2015-06-08T07:31:36Z</time>
      </trkpt>
      <trkpt lat="48.74463" lon="2.5723">
        <ele>93</ele>
        <time>2015-06-08T07:31:48Z</time>
      </trkpt>
      <trkpt lat="48.74457" lon="2.57216">
        <ele>99</ele>
        <time>2015-06-08T07:31:54Z</time>
      </trkpt>
      <trkpt lat="48.74428" lon="2.57123">
        <ele>89</ele>
        <time>2015-06-08T07:32:24Z</time>
      </trkpt>
      <trkpt lat="48.74415" lon="2.57086">
        <ele>84</ele>
        <time>2015-06-08T07:32:43Z</time>
      </trkpt>
      <trkpt lat="48.74416" lon="2.57082">
        <ele>87</ele>
        <time>2015-06-08T07:34:02Z</time>
      </trkpt>
      <trkpt lat="48.74416" lon="2.5708">
        <ele>88</ele>
        <time>2015-06-08T07:34:17Z</time>
      </trkpt>
      <trkpt lat="48.74415" lon="2.57076">
        <ele>88</ele>
        <time>2015-06-08T07:34:24Z</time>
      </trkpt>
      <trkpt lat="48.74392" lon="2.57006">
        <ele>84</ele>
        <time>2015-06-08T07:34:55Z</time>
      </trkpt>
      <trkpt lat="48.74388" lon="2.56982">
        <ele>83</ele>
        <time>2015-06-08T07:35:05Z</time>
      </trkpt>
      <trkpt lat="48.74366" lon="2.56938">
        <ele>84</ele>
        <time>2015-06-08T07:35:27Z</time>
      </trkpt>
      <trkpt lat="48.74365" lon="2.56935">
        <ele>89</ele>
        <time>2015-06-08T07:35:29Z</time>
      </trkpt>
      <trkpt lat="48.74358" lon="2.56917">
        <ele>98</ele>
        <time>2015-06-08T07:35:41Z</time>
      </trkpt>
      <trkpt lat="48.74355" lon="2.56914">
        <ele>99</ele>
        <time>2015-06-08T07:35:43Z</time>
      </trkpt>
      <trkpt lat="48.74349" lon="2.56908">
        <ele>104</ele>
        <time>2015-06-08T07:35:47Z</time>
      </trkpt>
      <trkpt lat="48.74348" lon="2.56905">
        <ele>105</ele>
        <time>2015-06-08T07:35:49Z</time>
      </trkpt>
      <trkpt lat="48.74326" lon="2.56839">
        <ele>111</ele>
        <time>2015-06-08T07:36:19Z</time>
      </trkpt>
      <trkpt lat="48.74314" lon="2.56818">
        <ele>107</ele>
        <time>2015-06-08T07:36:27Z</time>
      </trkpt>
      <trkpt lat="48.74309" lon="2.5681">
        <ele>108</ele>
        <time>2015-06-08T07:36:31Z</time>
      </trkpt>
      <trkpt lat="48.74293" lon="2.56771">
        <ele>111</ele>
        <time>2015-06-08T07:36:50Z</time>
      </trkpt>
      <trkpt lat="48.74285" lon="2.56747">
        <ele>115</ele>
        <time>2015-06-08T07:37:00Z</time>
      </trkpt>
      <trkpt lat="48.74286" lon="2.56743">
        <ele>117</ele>
        <time>2015-06-08T07:37:02Z</time>
      </trkpt>
      <trkpt lat="48.74283" lon="2.56732">
        <ele>115</ele>
        <time>2015-06-08T07:37:07Z</time>
      </trkpt>
      <trkpt lat="48.74255" lon="2.56664">
        <ele>111</ele>
        <time>2015-06-08T07:37:37Z</time>
      </trkpt>
      <trkpt lat="48.74225" lon="2.56592">
        <ele>106</ele>
        <time>2015-06-08T07:38:08Z</time>
      </trkpt>
      <trkpt lat="48.74219" lon="2.56569">
        <ele>108</ele>
        <time>2015-06-08T07:38:18Z</time>
      </trkpt>
      <trkpt lat="48.7421" lon="2.56551">
        <ele>98</ele>
        <time>2015-06-08T07:38:30Z</time>
      </trkpt>
      <trkpt lat="48.74211" lon="2.56549">
        <ele>96</ele>
        <time>2015-06-08T07:38:35Z</time>
      </trkpt>
      <trkpt lat="48.74211" lon="2.56547">
        <ele>94</ele>
        <time>2015-06-08T07:38:43Z</time>
      </trkpt>
      <trkpt lat="48.74208" lon="2.56538">
        <ele>94</ele>
        <time>2015-06-08T07:39:04Z</time>
      </trkpt>
      <trkpt lat="48.74208" lon="2.56534">
        <ele>94</ele>
        <time>2015-06-08T07:39:06Z</time>
      </trkpt>
      <trkpt lat="48.74238" lon="2.56468">
        <ele>97</ele>
        <time>2015-06-08T07:39:36Z</time>
      </trkpt>
      <trkpt lat="48.74267" lon="2.56415">
        <ele>100</ele>
        <time>2015-06-08T07:40:06Z</time>
      </trkpt>
      <trkpt lat="48.74274" lon="2.56402">
        <ele>103</ele>
        <time>2015-06-08T07:40:12Z</time>
      </trkpt>
      <trkpt lat="48.74304" lon="2.56351">
        <ele>105</ele>
        <time>2015-06-08T07:40:38Z</time>
      </trkpt>
      <trkpt lat="48.74335" lon="2.56297">
        <ele>107</ele>
        <time>2015-06-08T07:41:08Z</time>
      </trkpt>
      <trkpt lat="48.74373" lon="2.56227">
        <ele>105</ele>
        <time>2015-06-08T07:41:39Z</time>
      </trkpt>
      <trkpt lat="48.74393" lon="2.56196">
        <ele>104</ele>
        <time>2015-06-08T07:42:15Z</time>
      </trkpt>
      <trkpt lat="48.74433" lon="2.56216">
        <ele>97</ele>
        <time>2015-06-08T07:42:46Z</time>
      </trkpt>
      <trkpt lat="48.7448" lon="2.56265">
        <ele>95</ele>
        <time>2015-06-08T07:43:14Z</time>
      </trkpt>
      <trkpt lat="48.74481" lon="2.56262">
        <ele>95</ele>
        <time>2015-06-08T07:43:16Z</time>
      </trkpt>
      <trkpt lat="48.74483" lon="2.56256">
        <ele>94</ele>
        <time>2015-06-08T07:43:20Z</time>
      </trkpt>
      <trkpt lat="48.74484" lon="2.56256">
        <ele>94</ele>
        <time>2015-06-08T07:43:23Z</time>
      </trkpt>
      <trkpt lat="48.74484" lon="2.56251">
        <ele>94</ele>
        <time>2015-06-08T07:43:26Z</time>
      </trkpt>
      <trkpt lat="48.7449" lon="2.56178">
        <ele>96</ele>
        <time>2015-06-08T07:43:56Z</time>
      </trkpt>
      <trkpt lat="48.74493" lon="2.56104">
        <ele>98</ele>
        <time>2015-06-08T07:44:26Z</time>
      </trkpt>
      <trkpt lat="48.74501" lon="2.56031">
        <ele>99</ele>
        <time>2015-06-08T07:44:56Z</time>
      </trkpt>
      <trkpt lat="48.74509" lon="2.55995">
        <ele>98</ele>
        <time>2015-06-08T07:45:13Z</time>
      </trkpt>
      <trkpt lat="48.74511" lon="2.55996">
        <ele>98</ele>
        <time>2015-06-08T07:45:15Z</time>
      </trkpt>
      <trkpt lat="48.74554" lon="2.56043">
        <ele>97</ele>
        <time>2015-06-08T07:45:46Z</time>
      </trkpt>
      <trkpt lat="48.74559" lon="2.56047">
        <ele>98</ele>
        <time>2015-06-08T07:45:50Z</time>
      </trkpt>
      <trkpt lat="48.74572" lon="2.56046">
        <ele>97</ele>
        <time>2015-06-08T07:46:04Z</time>
      </trkpt>
      <trkpt lat="48.74578" lon="2.56065">
        <ele>100</ele>
        <time>2015-06-08T07:46:19Z</time>
      </trkpt>
      <trkpt lat="48.74616" lon="2.56094">
        <ele>102</ele>
        <time>2015-06-08T07:46:49Z</time>
      </trkpt>
      <trkpt lat="48.74631" lon="2.56113">
        <ele>107</ele>
        <time>2015-06-08T07:47:01Z</time>
      </trkpt>
      <trkpt lat="48.74673" lon="2.56146">
        <ele>112</ele>
        <time>2015-06-08T07:47:31Z</time>
      </trkpt>
      <trkpt lat="48.74721" lon="2.56185">
        <ele>102</ele>
        <time>2015-06-08T07:48:01Z</time>
      </trkpt>
      <trkpt lat="48.7475" lon="2.56202">
        <ele>107</ele>
        <time>2015-06-08T07:48:18Z</time>
      </trkpt>
      <trkpt lat="48.74783" lon="2.5626">
        <ele>107</ele>
        <time>2015-06-08T07:48:49Z</time>
      </trkpt>
      <trkpt lat="48.74823" lon="2.56297">
        <ele>112</ele>
        <time>2015-06-08T07:49:19Z</time>
      </trkpt>
      <trkpt lat="48.74874" lon="2.56349">
        <ele>109</ele>
        <time>2015-06-08T07:49:49Z</time>
      </trkpt>
      <trkpt lat="48.74882" lon="2.56361">
        <ele>114</ele>
        <time>2015-06-08T07:49:57Z</time>
      </trkpt>
      <trkpt lat="48.74923" lon="2.56403">
        <ele>121</ele>
        <time>2015-06-08T07:50:28Z</time>
      </trkpt>
      <trkpt lat="48.74974" lon="2.56444">
        <ele>105</ele>
        <time>2015-06-08T07:50:58Z</time>
      </trkpt>
      <trkpt lat="48.74975" lon="2.56441">
        <ele>104</ele>
        <time>2015-06-08T07:51:10Z</time>
      </trkpt>
      <trkpt lat="48.74983" lon="2.56388">
        <ele>104</ele>
        <time>2015-06-08T07:51:38Z</time>
      </trkpt>
      <trkpt lat="48.74985" lon="2.56383">
        <ele>104</ele>
        <time>2015-06-08T07:51:40Z</time>
      </trkpt>
      <trkpt lat="48.74986" lon="2.5638">
        <ele>104</ele>
        <time>2015-06-08T07:51:42Z</time>
      </trkpt>
      <trkpt lat="48.74987" lon="2.56362">
        <ele>106</ele>
        <time>2015-06-08T07:51:53Z</time>
      </trkpt>
      <trkpt lat="48.74999" lon="2.56318">
        <ele>98</ele>
        <time>2015-06-08T07:52:25Z</time>
      </trkpt>
      <trkpt lat="48.75" lon="2.56258">
        <ele>105</ele>
        <time>2015-06-08T07:52:55Z</time>
      </trkpt>
      <trkpt lat="48.74999" lon="2.56242">
        <ele>106</ele>
        <time>2015-06-08T07:53:04Z</time>
      </trkpt>
      <trkpt lat="48.75006" lon="2.56214">
        <ele>103</ele>
        <time>2015-06-08T07:53:19Z</time>
      </trkpt>
      <trkpt lat="48.75008" lon="2.56211">
        <ele>103</ele>
        <time>2015-06-08T07:53:21Z</time>
      </trkpt>
      <trkpt lat="48.75042" lon="2.56165">
        <ele>103</ele>
        <time>2015-06-08T07:53:48Z</time>
      </trkpt>
      <trkpt lat="48.75089" lon="2.56164">
        <ele>104</ele>
        <time>2015-06-08T07:54:17Z</time>
      </trkpt>
      <trkpt lat="48.75127" lon="2.56181">
        <ele>105</ele>
        <time>2015-06-08T07:54:41Z</time>
      </trkpt>
      <trkpt lat="48.75129" lon="2.56184">
        <ele>108</ele>
        <time>2015-06-08T07:54:44Z</time>
      </trkpt>
      <trkpt lat="48.75134" lon="2.56198">
        <ele>108</ele>
        <time>2015-06-08T07:55:02Z</time>
      </trkpt>
      <trkpt lat="48.75137" lon="2.56195">
        <ele>105</ele>
        <time>2015-06-08T07:55:43Z</time>
      </trkpt>
      <trkpt lat="48.75137" lon="2.5619">
        <ele>104</ele>
        <time>2015-06-08T07:55:48Z</time>
      </trkpt>
      <trkpt lat="48.75159" lon="2.5612">
        <ele>104</ele>
        <time>2015-06-08T07:56:19Z</time>
      </trkpt>
      <trkpt lat="48.7516" lon="2.56115">
        <ele>105</ele>
        <time>2015-06-08T07:56:21Z</time>
      </trkpt>
      <trkpt lat="48.75158" lon="2.56112">
        <ele>105</ele>
        <time>2015-06-08T07:56:23Z</time>
      </trkpt>
      <trkpt lat="48.75158" lon="2.56107">
        <ele>106</ele>
        <time>2015-06-08T07:56:26Z</time>
      </trkpt>
      <trkpt lat="48.75175" lon="2.5602">
        <ele>103</ele>
        <time>2015-06-08T07:56:56Z</time>
      </trkpt>
      <trkpt lat="48.75191" lon="2.55937">
        <ele>109</ele>
        <time>2015-06-08T07:57:26Z</time>
      </trkpt>
      <trkpt lat="48.75194" lon="2.55926">
        <ele>108</ele>
        <time>2015-06-08T07:57:30Z</time>
      </trkpt>
      <trkpt lat="48.75195" lon="2.55907">
        <ele>107</ele>
        <time>2015-06-08T07:57:38Z</time>
      </trkpt>
      <trkpt lat="48.75197" lon="2.55905">
        <ele>107</ele>
        <time>2015-06-08T07:57:40Z</time>
      </trkpt>
      <trkpt lat="48.75209" lon="2.55833">
        <ele>109</ele>
        <time>2015-06-08T07:58:11Z</time>
      </trkpt>
      <trkpt lat="48.75227" lon="2.55764">
        <ele>105</ele>
        <time>2015-06-08T07:58:41Z</time>
      </trkpt>
      <trkpt lat="48.75251" lon="2.55732">
        <ele>98</ele>
        <time>2015-06-08T07:59:07Z</time>
      </trkpt>
      <trkpt lat="48.7524" lon="2.55732">
        <ele>101</ele>
        <time>2015-06-08T07:59:27Z</time>
      </trkpt>
      <trkpt lat="48.75234" lon="2.55727">
        <ele>101</ele>
        <time>2015-06-08T07:59:36Z</time>
      </trkpt>
      <trkpt lat="48.75226" lon="2.5569">
        <ele>102</ele>
        <time>2015-06-08T07:59:54Z</time>
      </trkpt>
      <trkpt lat="48.75226" lon="2.5568">
        <ele>103</ele>
        <time>2015-06-08T07:59:58Z</time>
      </trkpt>
      <trkpt lat="48.75215" lon="2.55663">
        <ele>107</ele>
        <time>2015-06-08T08:00:08Z</time>
      </trkpt>
      <trkpt lat="48.752" lon="2.55586">
        <ele>108</ele>
        <time>2015-06-08T08:00:39Z</time>
      </trkpt>
      <trkpt lat="48.75199" lon="2.55575">
        <ele>109</ele>
        <time>2015-06-08T08:00:43Z</time>
      </trkpt>
      <trkpt lat="48.75197" lon="2.55572">
        <ele>111</ele>
        <time>2015-06-08T08:00:45Z</time>
      </trkpt>
      <trkpt lat="48.75181" lon="2.55509">
        <ele>113</ele>
        <time>2015-06-08T08:01:15Z</time>
      </trkpt>
      <trkpt lat="48.75175" lon="2.55498">
        <ele>113</ele>
        <time>2015-06-08T08:01:21Z</time>
      </trkpt>
      <trkpt lat="48.75174" lon="2.55469">
        <ele>115</ele>
        <time>2015-06-08T08:01:31Z</time>
      </trkpt>
      <trkpt lat="48.75172" lon="2.55466">
        <ele>115</ele>
        <time>2015-06-08T08:01:33Z</time>
      </trkpt>
      <trkpt lat="48.75167" lon="2.55441">
        <ele>112</ele>
        <time>2015-06-08T08:01:42Z</time>
      </trkpt>
      <trkpt lat="48.75167" lon="2.55433">
        <ele>110</ele>
        <time>2015-06-08T08:01:44Z</time>
      </trkpt>
      <trkpt lat="48.75165" lon="2.55416">
        <ele>111</ele>
        <time>2015-06-08T08:01:50Z</time>
      </trkpt>
      <trkpt lat="48.75143" lon="2.55341">
        <ele>113</ele>
        <time>2015-06-08T08:02:20Z</time>
      </trkpt>
      <trkpt lat="48.75135" lon="2.5532">
        <ele>110</ele>
        <time>2015-06-08T08:02:28Z</time>
      </trkpt>
      <trkpt lat="48.75132" lon="2.55278">
        <ele>109</ele>
        <time>2015-06-08T08:02:45Z</time>
      </trkpt>
      <trkpt lat="48.75125" lon="2.55266">
        <ele>105</ele>
        <time>2015-06-08T08:03:05Z</time>
      </trkpt>
      <trkpt lat="48.75121" lon="2.55234">
        <ele>106</ele>
        <time>2015-06-08T08:03:24Z</time>
      </trkpt>
      <trkpt lat="48.75118" lon="2.55231">
        <ele>107</ele>
        <time>2015-06-08T08:03:26Z</time>
      </trkpt>
      <trkpt lat="48.75116" lon="2.55216">
        <ele>108</ele>
        <time>2015-06-08T08:03:32Z</time>
      </trkpt>
      <trkpt lat="48.75112" lon="2.55211">
        <ele>107</ele>
        <time>2015-06-08T08:03:36Z</time>
      </trkpt>
      <trkpt lat="48.75113" lon="2.55201">
        <ele>105</ele>
        <time>2015-06-08T08:03:39Z</time>
      </trkpt>
      <trkpt lat="48.75121" lon="2.5514">
        <ele>103</ele>
        <time>2015-06-08T08:03:58Z</time>
      </trkpt>
      <trkpt lat="48.7512" lon="2.55139">
        <ele>103</ele>
        <time>2015-06-08T08:03:59Z</time>
      </trkpt>
      <trkpt lat="48.75115" lon="2.55136">
        <ele>106</ele>
        <time>2015-06-08T08:04:04Z</time>
      </trkpt>
      <trkpt lat="48.75113" lon="2.55133">
        <ele>107</ele>
        <time>2015-06-08T08:04:06Z</time>
      </trkpt>
      <trkpt lat="48.75114" lon="2.55128">
        <ele>107</ele>
        <time>2015-06-08T08:04:08Z</time>
      </trkpt>
      <trkpt lat="48.75115" lon="2.5512">
        <ele>104</ele>
        <time>2015-06-08T08:04:11Z</time>
      </trkpt>
      <trkpt lat="48.75114" lon="2.55113">
        <ele>104</ele>
        <time>2015-06-08T08:04:14Z</time>
      </trkpt>
      <trkpt lat="48.75115" lon="2.55095">
        <ele>103</ele>
        <time>2015-06-08T08:04:20Z</time>
      </trkpt>
      <trkpt lat="48.7512" lon="2.55017">
        <ele>101</ele>
        <time>2015-06-08T08:04:51Z</time>
      </trkpt>
      <trkpt lat="48.7512" lon="2.55012">
        <ele>98</ele>
        <time>2015-06-08T08:05:10Z</time>
      </trkpt>
      <trkpt lat="48.75119" lon="2.55011">
        <ele>98</ele>
        <time>2015-06-08T08:05:21Z</time>
      </trkpt>
      <trkpt lat="48.75118" lon="2.5501">
        <ele>101</ele>
        <time>2015-06-08T08:05:55Z</time>
      </trkpt>
      <trkpt lat="48.75116" lon="2.55008">
        <ele>102</ele>
        <time>2015-06-08T08:06:16Z</time>
      </trkpt>
      <trkpt lat="48.75112" lon="2.55008">
        <ele>102</ele>
        <time>2015-06-08T08:06:19Z</time>
      </trkpt>
      <trkpt lat="48.75109" lon="2.55007">
        <ele>105</ele>
        <time>2015-06-08T08:06:21Z</time>
      </trkpt>
      <trkpt lat="48.75106" lon="2.55004">
        <ele>106</ele>
        <time>2015-06-08T08:06:23Z</time>
      </trkpt>
      <trkpt lat="48.75106" lon="2.54993">
        <ele>104</ele>
        <time>2015-06-08T08:06:27Z</time>
      </trkpt>
      <trkpt lat="48.75108" lon="2.54923">
        <ele>102</ele>
        <time>2015-06-08T08:06:57Z</time>
      </trkpt>
      <trkpt lat="48.75109" lon="2.54886">
        <ele>104</ele>
        <time>2015-06-08T08:07:12Z</time>
      </trkpt>
      <trkpt lat="48.75102" lon="2.54875">
        <ele>103</ele>
        <time>2015-06-08T08:07:20Z</time>
      </trkpt>
      <trkpt lat="48.75101" lon="2.54866">
        <ele>102</ele>
        <time>2015-06-08T08:07:23Z</time>
      </trkpt>
      <trkpt lat="48.75104" lon="2.54851">
        <ele>97</ele>
        <time>2015-06-08T08:07:27Z</time>
      </trkpt>
      <trkpt lat="48.75105" lon="2.54814">
        <ele>98</ele>
        <time>2015-06-08T08:07:40Z</time>
      </trkpt>
      <trkpt lat="48.751" lon="2.54769">
        <ele>101</ele>
        <time>2015-06-08T08:07:59Z</time>
      </trkpt>
      <trkpt lat="48.751" lon="2.54753">
        <ele>97</ele>
        <time>2015-06-08T08:08:06Z</time>
      </trkpt>
      <trkpt lat="48.75103" lon="2.54727">
        <ele>94</ele>
        <time>2015-06-08T08:08:16Z</time>
      </trkpt>
      <trkpt lat="48.75102" lon="2.54722">
        <ele>95</ele>
        <time>2015-06-08T08:08:19Z</time>
      </trkpt>
      <trkpt lat="48.75103" lon="2.54714">
        <ele>95</ele>
        <time>2015-06-08T08:08:23Z</time>
      </trkpt>
      <trkpt lat="48.75097" lon="2.54701">
        <ele>97</ele>
        <time>2015-06-08T08:08:31Z</time>
      </trkpt>
      <trkpt lat="48.75098" lon="2.54696">
        <ele>98</ele>
        <time>2015-06-08T08:08:33Z</time>
      </trkpt>
      <trkpt lat="48.75099" lon="2.54685">
        <ele>100</ele>
        <time>2015-06-08T08:08:37Z</time>
      </trkpt>
      <trkpt lat="48.75096" lon="2.54616">
        <ele>100</ele>
        <time>2015-06-08T08:09:07Z</time>
      </trkpt>
      <trkpt lat="48.75097" lon="2.54609">
        <ele>100</ele>
        <time>2015-06-08T08:09:13Z</time>
      </trkpt>
      <trkpt lat="48.75092" lon="2.546">
        <ele>100</ele>
        <time>2015-06-08T08:09:21Z</time>
      </trkpt>
      <trkpt lat="48.75089" lon="2.54597">
        <ele>99</ele>
        <time>2015-06-08T08:09:23Z</time>
      </trkpt>
      <trkpt lat="48.75083" lon="2.5459">
        <ele>100</ele>
        <time>2015-06-08T08:09:28Z</time>
      </trkpt>
      <trkpt lat="48.75083" lon="2.54585">
        <ele>99</ele>
        <time>2015-06-08T08:09:30Z</time>
      </trkpt>
      <trkpt lat="48.75084" lon="2.5458">
        <ele>99</ele>
        <time>2015-06-08T08:09:32Z</time>
      </trkpt>
      <trkpt lat="48.75086" lon="2.54571">
        <ele>99</ele>
        <time>2015-06-08T08:09:36Z</time>
      </trkpt>
      <trkpt lat="48.75085" lon="2.54569">
        <ele>99</ele>
        <time>2015-06-08T08:09:38Z</time>
      </trkpt>
      <trkpt lat="48.75083" lon="2.54567">
        <ele>99</ele>
        <time>2015-06-08T08:09:42Z</time>
      </trkpt>
      <trkpt lat="48.75081" lon="2.54564">
        <ele>100</ele>
        <time>2015-06-08T08:09:45Z</time>
      </trkpt>
      <trkpt lat="48.75076" lon="2.54551">
        <ele>102</ele>
        <time>2015-06-08T08:09:53Z</time>
      </trkpt>
      <trkpt lat="48.75073" lon="2.54548">
        <ele>103</ele>
        <time>2015-06-08T08:09:56Z</time>
      </trkpt>
      <trkpt lat="48.75067" lon="2.54543">
        <ele>104</ele>
        <time>2015-06-08T08:10:02Z</time>
      </trkpt>
      <trkpt lat="48.75055" lon="2.54533">
        <ele>102</ele>
        <time>2015-06-08T08:10:10Z</time>
      </trkpt>
      <trkpt lat="48.75048" lon="2.54531">
        <ele>104</ele>
        <time>2015-06-08T08:10:16Z</time>
      </trkpt>
      <trkpt lat="48.75046" lon="2.54528">
        <ele>103</ele>
        <time>2015-06-08T08:10:18Z</time>
      </trkpt>
      <trkpt lat="48.75044" lon="2.54521">
        <ele>102</ele>
        <time>2015-06-08T08:10:22Z</time>
      </trkpt>
      <trkpt lat="48.75038" lon="2.54518">
        <ele>102</ele>
        <time>2015-06-08T08:10:26Z</time>
      </trkpt>
      <trkpt lat="48.75035" lon="2.54517">
        <ele>102</ele>
        <time>2015-06-08T08:10:28Z</time>
      </trkpt>
      <trkpt lat="48.74998" lon="2.54496">
        <ele>104</ele>
        <time>2015-06-08T08:10:53Z</time>
      </trkpt>
      <trkpt lat="48.74995" lon="2.54491">
        <ele>101</ele>
        <time>2015-06-08T08:10:57Z</time>
      </trkpt>
      <trkpt lat="48.74991" lon="2.54485">
        <ele>101</ele>
        <time>2015-06-08T08:11:01Z</time>
      </trkpt>
      <trkpt lat="48.74988" lon="2.54478">
        <ele>101</ele>
        <time>2015-06-08T08:11:05Z</time>
      </trkpt>
      <trkpt lat="48.74986" lon="2.54455">
        <ele>100</ele>
        <time>2015-06-08T08:11:18Z</time>
      </trkpt>
      <trkpt lat="48.74983" lon="2.5445">
        <ele>100</ele>
        <time>2015-06-08T08:11:21Z</time>
      </trkpt>
      <trkpt lat="48.7498" lon="2.54442">
        <ele>102</ele>
        <time>2015-06-08T08:11:24Z</time>
      </trkpt>
      <trkpt lat="48.74973" lon="2.54429">
        <ele>106</ele>
        <time>2015-06-08T08:11:31Z</time>
      </trkpt>
      <trkpt lat="48.74973" lon="2.54405">
        <ele>102</ele>
        <time>2015-06-08T08:11:40Z</time>
      </trkpt>
      <trkpt lat="48.74973" lon="2.54402">
        <ele>102</ele>
        <time>2015-06-08T08:11:42Z</time>
      </trkpt>
      <trkpt lat="48.74973" lon="2.54399">
        <ele>101</ele>
        <time>2015-06-08T08:11:44Z</time>
      </trkpt>
      <trkpt lat="48.74971" lon="2.54345">
        <ele>102</ele>
        <time>2015-06-08T08:12:14Z</time>
      </trkpt>
      <trkpt lat="48.74935" lon="2.54311">
        <ele>100</ele>
        <time>2015-06-08T08:12:44Z</time>
      </trkpt>
      <trkpt lat="48.74924" lon="2.54307">
        <ele>96</ele>
        <time>2015-06-08T08:13:07Z</time>
      </trkpt>
      <trkpt lat="48.74922" lon="2.54304">
        <ele>93</ele>
        <time>2015-06-08T08:14:55Z</time>
      </trkpt>
      <trkpt lat="48.74921" lon="2.54303">
        <ele>93</ele>
        <time>2015-06-08T08:15:00Z</time>
      </trkpt>
      <trkpt lat="48.7492" lon="2.54299">
        <ele>93</ele>
        <time>2015-06-08T08:15:41Z</time>
      </trkpt>
      <trkpt lat="48.74922" lon="2.54296">
        <ele>92</ele>
        <time>2015-06-08T08:16:01Z</time>
      </trkpt>
      <trkpt lat="48.74924" lon="2.54292">
        <ele>97</ele>
        <time>2015-06-08T08:26:34Z</time>
      </trkpt>
      <trkpt lat="48.74926" lon="2.54291">
        <ele>100</ele>
        <time>2015-06-08T08:27:12Z</time>
      </trkpt>
      <trkpt lat="48.74927" lon="2.54291">
        <ele>99</ele>
        <time>2015-06-08T08:27:17Z</time>
      </trkpt>
    </trkseg>
  </trk>
</gpx>